createdAt,value
2018-11-12T00:00:06.894Z,19.80
2018-11-12T00:01:17.279Z,16.00
2018-11-12T00:02:27.463Z,16.55
2018-11-12T00:03:37.623Z,17.50
2018-11-12T00:04:47.835Z,19.35
2018-11-12T00:05:57.962Z,23.12
2018-11-12T00:07:08.069Z,16.65
2018-11-12T00:08:18.466Z,17.57
2018-11-12T00:09:29.394Z,22.13
2018-11-12T00:10:39.409Z,19.02
2018-11-12T00:11:49.673Z,15.88
2018-11-12T00:12:59.916Z,15.98
2018-11-12T00:14:10.350Z,18.07
2018-11-12T00:15:20.445Z,17.20
2018-11-12T00:16:30.372Z,21.40
2018-11-12T00:17:40.505Z,18.37
2018-11-12T00:18:50.431Z,17.57
2018-11-12T00:20:00.941Z,16.67
2018-11-12T00:21:11.172Z,16.52
2018-11-12T00:22:21.268Z,20.65
2018-11-12T00:23:31.207Z,16.62
2018-11-12T00:24:41.741Z,18.77
2018-11-12T00:25:51.828Z,16.85
2018-11-12T00:27:02.400Z,17.87
2018-11-12T00:28:12.321Z,17.80
2018-11-12T00:29:22.659Z,32.78
2018-11-12T00:30:33.154Z,24.75
2018-11-12T00:31:43.221Z,20.52
2018-11-12T00:32:53.219Z,17.57
2018-11-12T00:34:03.096Z,16.25
2018-11-12T00:35:13.640Z,16.65
2018-11-12T00:36:23.615Z,16.05
2018-11-12T00:37:33.916Z,15.25
2018-11-12T00:38:44.099Z,18.92
2018-11-12T00:39:54.029Z,18.48
2018-11-12T00:41:04.317Z,17.37
2018-11-12T00:42:14.148Z,16.65
2018-11-12T00:43:24.293Z,15.15
2018-11-12T00:44:34.659Z,17.55
2018-11-12T00:45:44.789Z,17.70
2018-11-12T00:46:54.730Z,17.57
2018-11-12T00:48:04.887Z,18.73
2018-11-12T00:49:15.467Z,17.02
2018-11-12T00:50:25.269Z,17.32
2018-11-12T00:51:35.178Z,16.55
2018-11-12T00:52:45.564Z,16.67
2018-11-12T00:53:55.768Z,18.80
2018-11-12T00:55:06.871Z,15.63
2018-11-12T00:56:16.922Z,13.85
2018-11-12T00:57:26.732Z,13.88
2018-11-12T00:58:37.144Z,15.23
2018-11-12T00:59:47.548Z,14.83
2018-11-12T01:00:57.767Z,18.57
2018-11-12T01:02:08.011Z,14.30
2018-11-12T01:03:18.004Z,15.23
2018-11-12T01:04:28.608Z,14.45
2018-11-12T01:05:38.639Z,15.98
2018-11-12T01:06:48.846Z,15.10
2018-11-12T01:07:59.363Z,12.50
2018-11-12T01:09:11.151Z,17.30
2018-11-12T01:10:21.253Z,13.98
2018-11-12T01:11:31.174Z,13.35
2018-11-12T01:12:42.067Z,15.18
2018-11-12T01:13:51.798Z,14.15
2018-11-12T01:15:02.030Z,13.40
2018-11-12T01:16:11.894Z,12.43
2018-11-12T01:17:22.388Z,14.30
2018-11-12T01:18:32.479Z,14.50
2018-11-12T01:19:42.789Z,16.55
2018-11-12T01:20:52.768Z,15.28
2018-11-12T01:22:02.989Z,13.13
2018-11-12T01:23:13.059Z,13.15
2018-11-12T01:24:23.254Z,12.98
2018-11-12T01:25:33.239Z,13.83
2018-11-12T01:26:43.140Z,14.13
2018-11-12T01:27:52.790Z,14.38
2018-11-12T01:29:03.534Z,15.83
2018-11-12T01:30:17.800Z,19.70
2018-11-12T01:31:27.845Z,16.35
2018-11-12T01:32:38.619Z,13.95
2018-11-12T01:33:48.531Z,14.70
2018-11-12T01:34:59.010Z,12.40
2018-11-12T01:36:08.961Z,15.35
2018-11-12T01:37:19.249Z,16.80
2018-11-12T01:38:29.419Z,14.68
2018-11-12T01:39:39.431Z,13.50
2018-11-12T01:40:49.442Z,13.75
2018-11-12T01:41:59.631Z,14.20
2018-11-12T01:43:09.803Z,15.10
2018-11-12T01:44:19.650Z,13.60
2018-11-12T01:45:29.789Z,16.90
2018-11-12T01:46:39.521Z,13.10
2018-11-12T01:47:50.716Z,16.82
2018-11-12T01:49:01.069Z,15.90
2018-11-12T01:50:12.430Z,15.43
2018-11-12T01:51:22.429Z,12.98
2018-11-12T01:52:32.563Z,11.80
2018-11-12T01:53:42.612Z,14.98
2018-11-12T01:54:52.586Z,13.88
2018-11-12T01:56:02.756Z,15.80
2018-11-12T01:57:12.859Z,11.38
2018-11-12T01:58:23.331Z,12.88
2018-11-12T01:59:33.750Z,11.53
2018-11-12T02:00:43.981Z,15.65
2018-11-12T02:01:54.359Z,12.68
2018-11-12T02:03:04.650Z,13.45
2018-11-12T02:04:14.811Z,11.80
2018-11-12T02:05:25.092Z,18.73
2018-11-12T02:06:35.044Z,14.23
2018-11-12T02:07:44.993Z,12.93
2018-11-12T02:08:54.978Z,13.80
2018-11-12T02:10:05.504Z,12.82
2018-11-12T02:11:15.812Z,15.03
2018-11-12T02:12:26.070Z,10.25
2018-11-12T02:13:36.531Z,10.63
2018-11-12T02:14:46.553Z,8.95
2018-11-12T02:15:56.781Z,9.78
2018-11-12T02:17:06.653Z,13.58
2018-11-12T02:18:16.711Z,10.93
2018-11-12T02:19:26.721Z,12.20
2018-11-12T02:20:36.780Z,10.70
2018-11-12T02:21:46.824Z,11.80
2018-11-12T02:22:57.440Z,10.90
2018-11-12T02:24:07.826Z,15.23
2018-11-12T02:25:18.195Z,13.08
2018-11-12T02:26:28.372Z,9.50
2018-11-12T02:27:38.684Z,10.13
2018-11-12T02:28:48.806Z,12.25
2018-11-12T02:29:59.143Z,12.58
2018-11-12T02:31:09.060Z,12.95
2018-11-12T02:32:19.176Z,13.22
2018-11-12T02:33:29.255Z,11.75
2018-11-12T02:34:39.513Z,11.22
2018-11-12T02:35:49.422Z,12.55
2018-11-12T02:36:59.662Z,11.65
2018-11-12T02:38:09.631Z,12.55
2018-11-12T02:39:19.637Z,11.33
2018-11-12T02:40:29.626Z,11.65
2018-11-12T02:41:40.361Z,12.00
2018-11-12T02:42:50.431Z,13.88
2018-11-12T02:44:00.299Z,13.48
2018-11-12T02:45:11.606Z,10.82
2018-11-12T02:46:21.537Z,11.68
2018-11-12T02:47:31.666Z,12.30
2018-11-12T02:48:41.542Z,11.65
2018-11-12T02:49:51.774Z,10.58
2018-11-12T02:51:01.997Z,10.80
2018-11-12T02:52:11.754Z,15.30
2018-11-12T02:53:21.639Z,11.63
2018-11-12T02:54:31.508Z,11.97
2018-11-12T02:55:41.434Z,9.63
2018-11-12T02:56:51.766Z,11.88
2018-11-12T02:58:02.224Z,13.55
2018-11-12T02:59:11.961Z,11.53
2018-11-12T03:00:23.362Z,13.10
2018-11-12T03:01:33.207Z,11.35
2018-11-12T03:02:43.750Z,11.75
2018-11-12T03:03:54.428Z,11.90
2018-11-12T03:05:04.233Z,9.78
2018-11-12T03:06:14.508Z,9.15
2018-11-12T03:07:24.620Z,10.38
2018-11-12T03:08:34.576Z,12.10
2018-11-12T03:09:44.636Z,10.23
2018-11-12T03:10:54.514Z,10.68
2018-11-12T03:12:04.735Z,10.38
2018-11-12T03:13:14.911Z,12.10
2018-11-12T03:14:25.300Z,8.90
2018-11-12T03:15:35.962Z,10.65
2018-11-12T03:16:45.726Z,12.75
2018-11-12T03:17:55.801Z,9.83
2018-11-12T03:19:06.442Z,12.25
2018-11-12T03:20:17.832Z,8.25
2018-11-12T03:21:27.872Z,10.68
2018-11-12T03:22:38.641Z,13.58
2018-11-12T03:23:48.789Z,10.93
2018-11-12T03:24:59.010Z,8.83
2018-11-12T03:26:09.063Z,10.70
2018-11-12T03:27:19.301Z,12.95
2018-11-12T03:28:29.138Z,13.43
2018-11-12T03:29:39.315Z,12.18
2018-11-12T03:30:49.324Z,14.25
2018-11-12T03:31:59.819Z,12.55
2018-11-12T03:33:09.869Z,17.90
2018-11-12T03:34:20.128Z,11.78
2018-11-12T03:35:30.553Z,14.05
2018-11-12T03:36:40.802Z,12.13
2018-11-12T03:37:51.223Z,9.28
2018-11-12T03:39:01.631Z,13.15
2018-11-12T03:40:13.857Z,15.50
2018-11-12T03:41:23.920Z,12.98
2018-11-12T03:42:33.818Z,12.20
2018-11-12T03:43:44.317Z,10.53
2018-11-12T03:44:54.405Z,12.15
2018-11-12T03:46:04.684Z,10.85
2018-11-12T03:47:14.612Z,12.53
2018-11-12T03:48:25.123Z,12.45
2018-11-12T03:49:35.307Z,11.78
2018-11-12T03:50:45.324Z,13.32
2018-11-12T03:51:55.600Z,14.33
2018-11-12T03:53:05.619Z,12.60
2018-11-12T03:54:15.623Z,13.20
2018-11-12T03:55:25.720Z,11.03
2018-11-12T03:56:35.914Z,12.78
2018-11-12T03:57:46.159Z,12.33
2018-11-12T03:58:56.317Z,11.33
2018-11-12T04:00:09.205Z,12.25
2018-11-12T04:01:19.063Z,13.30
2018-11-12T04:02:28.863Z,13.48
2018-11-12T04:03:38.357Z,10.93
2018-11-12T04:04:48.128Z,12.98
2018-11-12T04:05:57.846Z,11.83
2018-11-12T04:07:07.484Z,16.48
2018-11-12T04:08:17.245Z,11.97
2018-11-12T04:09:26.725Z,12.10
2018-11-12T04:10:36.650Z,10.50
2018-11-12T04:11:46.530Z,11.60
2018-11-12T04:12:56.287Z,9.48
2018-11-12T04:14:06.113Z,12.88
2018-11-12T04:15:24.037Z,16.60
2018-11-12T04:16:33.615Z,11.18
2018-11-12T04:17:43.440Z,14.35
2018-11-12T04:18:53.300Z,10.55
2018-11-12T04:20:02.979Z,10.95
2018-11-12T04:21:12.673Z,11.18
2018-11-12T04:22:22.306Z,11.95
2018-11-12T04:23:31.896Z,12.90
2018-11-12T04:24:41.628Z,12.82
2018-11-12T04:25:51.295Z,11.50
2018-11-12T04:27:00.987Z,11.28
2018-11-12T04:28:10.791Z,9.58
2018-11-12T04:29:20.515Z,11.83
2018-11-12T04:30:29.980Z,10.23
2018-11-12T04:31:39.637Z,12.45
2018-11-12T04:32:49.254Z,11.93
2018-11-12T04:34:05.743Z,13.10
2018-11-12T04:35:15.373Z,11.25
2018-11-12T04:36:25.370Z,10.53
2018-11-12T04:37:35.210Z,11.68
2018-11-12T04:38:44.769Z,12.25
2018-11-12T04:39:54.546Z,14.20
2018-11-12T04:41:04.933Z,11.55
2018-11-12T04:42:14.432Z,12.40
2018-11-12T04:43:23.986Z,11.10
2018-11-12T04:44:33.890Z,11.38
2018-11-12T04:45:43.737Z,13.00
2018-11-12T04:46:53.481Z,8.90
2018-11-12T04:48:02.944Z,11.45
2018-11-12T04:49:12.842Z,10.95
2018-11-12T04:50:24.053Z,9.95
2018-11-12T04:51:33.617Z,15.23
2018-11-12T04:52:43.442Z,9.68
2018-11-12T04:53:53.058Z,9.65
2018-11-12T04:55:02.767Z,12.80
2018-11-12T04:56:12.425Z,9.08
2018-11-12T04:57:22.032Z,11.10
2018-11-12T04:58:31.672Z,14.05
2018-11-12T04:59:41.112Z,10.23
2018-11-12T05:00:51.092Z,11.60
2018-11-12T05:02:00.741Z,8.58
2018-11-12T05:03:10.427Z,9.98
2018-11-12T05:04:20.263Z,15.00
2018-11-12T05:05:29.942Z,11.93
2018-11-12T05:06:39.816Z,9.93
2018-11-12T05:07:49.414Z,8.55
2018-11-12T05:08:59.022Z,10.68
2018-11-12T05:10:11.282Z,13.53
2018-11-12T05:11:21.217Z,11.18
2018-11-12T05:12:31.050Z,11.08
2018-11-12T05:13:40.669Z,12.15
2018-11-12T05:14:50.788Z,12.25
2018-11-12T05:16:00.432Z,10.15
2018-11-12T05:17:09.987Z,9.53
2018-11-12T05:18:19.777Z,10.78
2018-11-12T05:19:29.564Z,10.25
2018-11-12T05:20:39.138Z,8.95
2018-11-12T05:21:48.793Z,10.82
2018-11-12T05:22:58.833Z,10.68
2018-11-12T05:24:08.791Z,11.28
2018-11-12T05:25:18.641Z,8.58
2018-11-12T05:26:28.217Z,9.10
2018-11-12T05:27:37.997Z,10.63
2018-11-12T05:28:47.867Z,11.25
2018-11-12T05:29:57.394Z,8.60
2018-11-12T05:31:07.110Z,9.35
2018-11-12T05:32:16.869Z,11.03
2018-11-12T05:33:26.415Z,9.33
2018-11-12T05:34:35.974Z,13.28
2018-11-12T05:35:45.666Z,9.15
2018-11-12T05:36:55.683Z,10.38
2018-11-12T05:38:06.214Z,7.45
2018-11-12T05:39:16.041Z,8.65
2018-11-12T05:40:29.197Z,10.28
2018-11-12T05:41:39.012Z,8.20
2018-11-12T05:42:49.206Z,9.65
2018-11-12T05:43:58.938Z,7.40
2018-11-12T05:45:08.713Z,7.00
2018-11-12T05:46:18.330Z,8.65
2018-11-12T05:47:28.543Z,6.92
2018-11-12T05:48:38.093Z,8.93
2018-11-12T05:49:47.825Z,11.48
2018-11-12T05:50:57.765Z,7.25
2018-11-12T05:52:07.363Z,9.70
2018-11-12T05:53:16.922Z,9.83
2018-11-12T05:54:26.860Z,9.48
2018-11-12T05:55:36.634Z,8.50
2018-11-12T05:56:46.686Z,6.15
2018-11-12T05:57:56.087Z,7.67
2018-11-12T05:59:06.168Z,8.40
2018-11-12T06:00:17.694Z,9.03
2018-11-12T06:01:27.694Z,6.75
2018-11-12T06:02:37.612Z,6.62
2018-11-12T06:03:47.388Z,6.00
2018-11-12T06:04:57.027Z,5.40
2018-11-12T06:06:06.850Z,6.03
2018-11-12T06:07:16.634Z,5.75
2018-11-12T06:08:26.562Z,6.90
2018-11-12T06:09:36.252Z,5.83
2018-11-12T06:10:46.053Z,5.33
2018-11-12T06:11:55.910Z,5.28
2018-11-12T06:13:06.035Z,6.72
2018-11-12T06:14:15.737Z,4.30
2018-11-12T06:15:25.642Z,5.45
2018-11-12T06:16:35.466Z,4.33
2018-11-12T06:17:45.929Z,5.75
2018-11-12T06:18:55.696Z,6.80
2018-11-12T06:20:08.894Z,5.20
2018-11-12T06:21:18.518Z,5.55
2018-11-12T06:22:28.231Z,4.65
2018-11-12T06:23:37.967Z,5.72
2018-11-12T06:24:49.413Z,4.90
2018-11-12T06:25:59.249Z,6.00
2018-11-12T06:27:08.861Z,4.30
2018-11-12T06:28:18.748Z,7.05
2018-11-12T06:29:28.319Z,5.28
2018-11-12T06:30:38.046Z,5.08
2018-11-12T06:31:47.720Z,5.55
2018-11-12T06:32:57.377Z,4.30
2018-11-12T06:34:07.036Z,4.97
2018-11-12T06:35:17.208Z,5.67
2018-11-12T06:36:27.077Z,6.70
2018-11-12T06:37:37.143Z,5.15
2018-11-12T06:38:46.727Z,5.62
2018-11-12T06:39:56.189Z,3.62
2018-11-12T06:41:05.936Z,4.03
2018-11-12T06:42:15.509Z,5.78
2018-11-12T06:43:25.107Z,4.05
2018-11-12T06:44:34.936Z,4.20
2018-11-12T06:45:44.581Z,3.05
2018-11-12T06:46:54.130Z,4.60
2018-11-12T06:48:03.843Z,3.77
2018-11-12T06:49:14.219Z,4.17
2018-11-12T06:50:26.313Z,4.28
2018-11-12T06:51:36.079Z,7.33
2018-11-12T06:52:45.806Z,3.37
2018-11-12T06:53:55.714Z,3.50
2018-11-12T06:55:06.155Z,5.00
2018-11-12T06:56:15.810Z,5.22
2018-11-12T06:57:25.737Z,3.58
2018-11-12T06:58:35.705Z,4.58
2018-11-12T06:59:45.430Z,3.67
2018-11-12T07:00:55.086Z,3.20
2018-11-12T07:02:05.580Z,6.40
2018-11-12T07:03:15.147Z,9.20
2018-11-12T07:04:24.733Z,6.90
2018-11-12T07:05:34.470Z,6.47
2018-11-12T07:06:44.065Z,4.70
2018-11-12T07:07:53.642Z,5.22
2018-11-12T07:09:04.561Z,5.25
2018-11-12T07:10:15.565Z,4.28
2018-11-12T07:11:25.168Z,3.95
2018-11-12T07:12:35.059Z,4.08
2018-11-12T07:13:44.917Z,3.52
2018-11-12T07:15:01.116Z,3.02
2018-11-12T07:16:10.739Z,3.30
2018-11-12T07:17:20.373Z,3.87
2018-11-12T07:18:29.893Z,3.40
2018-11-12T07:19:39.871Z,4.03
2018-11-12T07:20:49.443Z,3.30
2018-11-12T07:21:59.021Z,5.22
2018-11-12T07:23:08.822Z,4.53
2018-11-12T07:24:18.666Z,3.45
2018-11-12T07:25:29.452Z,6.08
2018-11-12T07:26:39.051Z,3.50
2018-11-12T07:27:48.908Z,4.53
2018-11-12T07:28:58.538Z,3.95
2018-11-12T07:30:09.986Z,4.78
2018-11-12T07:31:19.726Z,6.20
2018-11-12T07:32:29.750Z,5.78
2018-11-12T07:33:39.702Z,4.75
2018-11-12T07:34:49.785Z,3.62
2018-11-12T07:35:59.413Z,4.53
2018-11-12T07:37:09.236Z,6.87
2018-11-12T07:38:18.840Z,3.52
2018-11-12T07:39:28.718Z,3.20
2018-11-12T07:40:38.408Z,6.45
2018-11-12T07:41:47.974Z,3.72
2018-11-12T07:42:57.889Z,4.20
2018-11-12T07:44:07.770Z,4.65
2018-11-12T07:45:18.681Z,5.35
2018-11-12T07:46:28.417Z,7.58
2018-11-12T07:47:38.151Z,4.65
2018-11-12T07:48:47.989Z,4.30
2018-11-12T07:49:57.806Z,3.42
2018-11-12T07:51:07.409Z,5.25
2018-11-12T07:52:16.973Z,5.62
2018-11-12T07:53:26.929Z,6.42
2018-11-12T07:54:36.701Z,4.33
2018-11-12T07:55:46.554Z,4.20
2018-11-12T07:56:56.281Z,4.37
2018-11-12T07:58:06.074Z,4.83
2018-11-12T07:59:15.814Z,3.62
2018-11-12T08:00:26.620Z,4.08
2018-11-12T08:01:36.199Z,5.30
2018-11-12T08:02:46.484Z,6.40
2018-11-12T08:03:56.613Z,6.90
2018-11-12T08:05:06.486Z,4.65
2018-11-12T08:06:16.042Z,4.20
2018-11-12T08:07:25.941Z,3.45
2018-11-12T08:08:35.685Z,5.28
2018-11-12T08:09:45.545Z,3.83
2018-11-12T08:10:55.147Z,3.45
2018-11-12T08:12:05.247Z,5.75
2018-11-12T08:13:14.952Z,4.12
2018-11-12T08:14:24.912Z,3.90
2018-11-12T08:15:34.691Z,9.93
2018-11-12T08:16:44.383Z,5.17
2018-11-12T08:17:54.097Z,3.70
2018-11-12T08:19:03.997Z,5.85
2018-11-12T08:20:18.877Z,7.55
2018-11-12T08:21:28.581Z,6.65
2018-11-12T08:22:38.728Z,5.37
2018-11-12T08:23:48.330Z,5.33
2018-11-12T08:24:57.804Z,5.10
2018-11-12T08:26:07.464Z,4.37
2018-11-12T08:27:17.008Z,3.47
2018-11-12T08:28:27.062Z,4.05
2018-11-12T08:29:36.797Z,2.83
2018-11-12T08:30:46.638Z,3.20
2018-11-12T08:31:56.391Z,3.27
2018-11-12T08:33:06.474Z,2.47
2018-11-12T08:34:16.262Z,4.37
2018-11-12T08:35:26.261Z,2.80
2018-11-12T08:36:35.933Z,2.60
2018-11-12T08:37:46.478Z,3.62
2018-11-12T08:38:56.312Z,2.52
2018-11-12T08:40:08.892Z,1.70
2018-11-12T08:41:18.466Z,3.35
2018-11-12T08:42:28.296Z,2.35
2018-11-12T08:43:38.244Z,3.17
2018-11-12T08:44:48.058Z,2.85
2018-11-12T08:45:57.759Z,2.30
2018-11-12T08:47:07.602Z,1.72
2018-11-12T08:48:17.313Z,2.12
2018-11-12T08:49:27.259Z,1.77
2018-11-12T08:50:37.043Z,2.55
2018-11-12T08:51:46.814Z,2.10
2018-11-12T08:52:57.213Z,2.20
2018-11-12T08:54:07.658Z,1.60
2018-11-12T08:55:19.339Z,2.70
2018-11-12T08:56:28.947Z,5.00
2018-11-12T08:57:39.269Z,3.37
2018-11-12T08:58:48.917Z,4.25
2018-11-12T08:59:58.658Z,1.75
2018-11-12T09:01:08.470Z,2.47
2018-11-12T09:02:18.199Z,1.80
2018-11-12T09:03:27.968Z,3.00
2018-11-12T09:04:37.854Z,4.50
2018-11-12T09:05:47.402Z,3.27
2018-11-12T09:06:57.116Z,2.55
2018-11-12T09:08:06.840Z,1.95
2018-11-12T09:09:16.658Z,3.08
2018-11-12T09:10:27.884Z,3.72
2018-11-12T09:11:37.707Z,2.33
2018-11-12T09:12:47.837Z,4.40
2018-11-12T09:13:57.797Z,2.40
2018-11-12T09:15:08.509Z,2.65
2018-11-12T09:16:18.093Z,2.67
2018-11-12T09:17:28.147Z,3.80
2018-11-12T09:18:37.875Z,3.92
2018-11-12T09:19:47.966Z,4.10
2018-11-12T09:20:57.728Z,8.13
2018-11-12T09:22:07.309Z,4.10
2018-11-12T09:23:17.213Z,3.45
2018-11-12T09:24:27.251Z,4.87
2018-11-12T09:25:37.126Z,3.45
2018-11-12T09:26:46.849Z,3.83
2018-11-12T09:27:56.465Z,4.80
2018-11-12T09:29:06.113Z,3.37
2018-11-12T09:30:18.092Z,3.27
2018-11-12T09:31:27.974Z,3.95
2018-11-12T09:32:37.597Z,5.33
2018-11-12T09:33:46.980Z,2.90
2018-11-12T09:34:56.702Z,4.42
2018-11-12T09:36:06.364Z,3.45
2018-11-12T09:37:16.180Z,3.45
2018-11-12T09:38:25.794Z,2.77
2018-11-12T09:39:35.501Z,2.30
2018-11-12T09:40:45.110Z,4.10
2018-11-12T09:41:54.804Z,3.47
2018-11-12T09:43:04.672Z,4.50
2018-11-12T09:44:14.250Z,3.00
2018-11-12T09:45:24.190Z,6.30
2018-11-12T09:46:33.962Z,3.30
2018-11-12T09:47:44.446Z,3.30
2018-11-12T09:48:53.941Z,2.60
2018-11-12T09:50:04.102Z,2.85
2018-11-12T09:51:13.873Z,4.28
2018-11-12T09:52:23.598Z,3.85
2018-11-12T09:53:33.505Z,3.50
2018-11-12T09:54:43.061Z,3.37
2018-11-12T09:55:52.597Z,4.37
2018-11-12T09:57:02.382Z,2.85
2018-11-12T09:58:11.962Z,3.05
2018-11-12T09:59:22.036Z,2.87
2018-11-12T10:00:31.944Z,3.22
2018-11-12T10:01:42.054Z,4.40
2018-11-12T10:02:52.810Z,2.67
2018-11-12T10:04:02.379Z,3.37
2018-11-12T10:05:12.491Z,3.25
2018-11-12T10:06:22.671Z,3.27
2018-11-12T10:07:33.309Z,3.22
2018-11-12T10:08:42.687Z,3.45
2018-11-12T10:09:53.735Z,6.55
2018-11-12T10:11:04.435Z,3.33
2018-11-12T10:12:13.373Z,4.10
2018-11-12T10:13:26.214Z,3.70
2018-11-12T10:14:34.876Z,2.80
2018-11-12T10:15:44.645Z,2.37
2018-11-12T10:16:54.602Z,2.80
2018-11-12T10:18:03.798Z,3.92
2018-11-12T10:19:10.955Z,4.10
2018-11-12T10:20:21.354Z,2.92
2018-11-12T10:21:30.923Z,4.17
2018-11-12T10:22:40.728Z,2.47
2018-11-12T10:23:50.695Z,3.30
2018-11-12T10:25:00.387Z,4.60
2018-11-12T10:26:10.061Z,4.70
2018-11-12T10:27:19.745Z,3.87
2018-11-12T10:28:29.466Z,3.27
2018-11-12T10:29:39.075Z,3.42
2018-11-12T10:30:48.891Z,5.58
2018-11-12T10:31:58.936Z,5.10
2018-11-12T10:33:09.078Z,3.55
2018-11-12T10:34:18.875Z,4.40
2018-11-12T10:35:28.706Z,3.25
2018-11-12T10:36:38.254Z,4.78
2018-11-12T10:37:48.176Z,3.35
2018-11-12T10:38:57.850Z,3.20
2018-11-12T10:40:10.212Z,3.98
2018-11-12T10:41:19.848Z,3.85
2018-11-12T10:42:29.889Z,3.67
2018-11-12T10:43:39.516Z,5.70
2018-11-12T10:44:49.147Z,3.80
2018-11-12T10:45:58.885Z,6.55
2018-11-12T10:47:08.842Z,5.47
2018-11-12T10:48:18.577Z,4.12
2018-11-12T10:49:28.590Z,3.70
2018-11-12T10:50:38.124Z,9.68
2018-11-12T10:51:47.836Z,4.33
2018-11-12T10:52:57.655Z,4.47
2018-11-12T10:54:07.702Z,3.80
2018-11-12T10:55:18.816Z,3.80
2018-11-12T10:56:28.208Z,4.35
2018-11-12T10:57:38.285Z,4.62
2018-11-12T10:58:47.990Z,3.80
2018-11-12T10:59:57.751Z,4.90
2018-11-12T11:01:12.774Z,2.87
2018-11-12T11:02:31.225Z,3.72
2018-11-12T11:03:46.633Z,4.05
2018-11-12T11:04:56.389Z,4.08
2018-11-12T11:06:07.276Z,6.33
2018-11-12T11:07:17.156Z,4.20
2018-11-12T11:08:26.831Z,4.95
2018-11-12T11:09:36.473Z,5.17
2018-11-12T11:10:46.151Z,4.10
2018-11-12T11:11:56.073Z,4.35
2018-11-12T11:13:06.274Z,3.70
2018-11-12T11:14:16.009Z,3.00
2018-11-12T11:15:25.928Z,2.98
2018-11-12T11:16:35.668Z,3.77
2018-11-12T11:17:45.523Z,3.40
2018-11-12T11:18:55.329Z,3.30
2018-11-12T11:20:05.019Z,4.37
2018-11-12T11:21:14.804Z,4.17
2018-11-12T11:22:24.688Z,3.25
2018-11-12T11:23:34.398Z,3.60
2018-11-12T11:24:44.325Z,3.65
2018-11-12T11:25:54.029Z,3.72
2018-11-12T11:27:03.882Z,2.58
2018-11-12T11:28:13.478Z,3.45
2018-11-12T11:29:23.237Z,4.03
2018-11-12T11:30:33.013Z,2.92
2018-11-12T11:31:42.866Z,2.80
2018-11-12T11:32:52.578Z,2.72
2018-11-12T11:34:02.138Z,2.55
2018-11-12T11:35:12.909Z,2.52
2018-11-12T11:36:22.625Z,3.17
2018-11-12T11:37:32.245Z,2.80
2018-11-12T11:38:42.272Z,2.37
2018-11-12T11:39:51.958Z,3.17
2018-11-12T11:41:01.951Z,3.00
2018-11-12T11:42:11.910Z,2.90
2018-11-12T11:43:21.626Z,4.35
2018-11-12T11:44:31.371Z,2.50
2018-11-12T11:45:41.184Z,8.18
2018-11-12T11:46:51.166Z,2.67
2018-11-12T11:48:00.785Z,4.90
2018-11-12T11:49:10.702Z,2.70
2018-11-12T11:50:22.008Z,3.08
2018-11-12T11:51:31.632Z,2.90
2018-11-12T11:52:41.720Z,3.00
2018-11-12T11:53:51.402Z,2.80
2018-11-12T11:55:01.325Z,3.20
2018-11-12T11:56:11.113Z,2.80
2018-11-12T11:57:20.956Z,2.98
2018-11-12T11:58:30.638Z,3.00
2018-11-12T11:59:40.340Z,2.40
2018-11-12T12:00:50.179Z,2.80
2018-11-12T12:01:59.867Z,2.33
2018-11-12T12:03:09.991Z,1.70
2018-11-12T12:04:19.630Z,2.42
2018-11-12T12:05:29.861Z,2.00
2018-11-12T12:06:39.661Z,2.40
2018-11-12T12:07:50.349Z,3.27
2018-11-12T12:09:00.069Z,1.90
2018-11-12T12:10:10.741Z,3.15
2018-11-12T12:11:20.561Z,2.12
2018-11-12T12:12:30.422Z,2.95
2018-11-12T12:13:40.138Z,2.52
2018-11-12T12:14:50.222Z,2.15
2018-11-12T12:16:00.107Z,2.60
2018-11-12T12:17:09.849Z,1.75
2018-11-12T12:18:19.684Z,2.42
2018-11-12T12:19:29.500Z,2.80
2018-11-12T12:20:39.210Z,2.12
2018-11-12T12:21:48.846Z,1.80
2018-11-12T12:22:58.607Z,2.47
2018-11-12T12:24:08.105Z,2.20
2018-11-12T12:25:18.171Z,1.67
2018-11-12T12:26:27.998Z,2.12
2018-11-12T12:27:37.833Z,1.47
2018-11-12T12:28:47.603Z,3.95
2018-11-12T12:29:57.272Z,2.12
2018-11-12T12:31:07.175Z,1.60
2018-11-12T12:32:16.936Z,1.92
2018-11-12T12:33:26.638Z,2.17
2018-11-12T12:34:36.522Z,2.27
2018-11-12T12:35:46.483Z,3.50
2018-11-12T12:36:56.197Z,1.52
2018-11-12T12:38:06.342Z,2.35
2018-11-12T12:39:16.158Z,2.40
2018-11-12T12:40:26.167Z,2.62
2018-11-12T12:41:36.129Z,4.62
2018-11-12T12:42:45.673Z,3.45
2018-11-12T12:43:55.397Z,2.52
2018-11-12T12:45:05.196Z,2.42
2018-11-12T12:46:15.408Z,2.92
2018-11-12T12:47:25.107Z,2.22
2018-11-12T12:48:34.953Z,2.55
2018-11-12T12:49:44.567Z,3.35
2018-11-12T12:50:54.450Z,2.20
2018-11-12T12:52:05.199Z,2.00
2018-11-12T12:53:14.847Z,2.33
2018-11-12T12:54:25.052Z,2.10
2018-11-12T12:55:34.877Z,1.95
2018-11-12T12:56:44.468Z,5.22
2018-11-12T12:57:54.299Z,2.08
2018-11-12T12:59:03.969Z,2.87
2018-11-12T13:00:16.163Z,2.58
2018-11-12T13:01:26.066Z,1.92
2018-11-12T13:02:35.850Z,1.80
2018-11-12T13:03:45.533Z,2.62
2018-11-12T13:04:55.425Z,5.10
2018-11-12T13:06:05.671Z,2.15
2018-11-12T13:07:15.322Z,3.50
2018-11-12T13:08:25.317Z,3.40
2018-11-12T13:09:35.112Z,1.87
2018-11-12T13:10:45.174Z,1.40
2018-11-12T13:11:55.318Z,2.50
2018-11-12T13:13:04.821Z,1.70
2018-11-12T13:14:14.799Z,3.98
2018-11-12T13:15:24.186Z,2.90
2018-11-12T13:16:33.944Z,1.80
2018-11-12T13:17:44.453Z,2.00
2018-11-12T13:18:54.358Z,2.15
2018-11-12T13:20:04.307Z,1.65
2018-11-12T13:21:14.064Z,1.67
2018-11-12T13:22:23.698Z,2.30
2018-11-12T13:23:33.485Z,2.80
2018-11-12T13:24:43.082Z,4.08
2018-11-12T13:25:52.945Z,4.03
2018-11-12T13:27:02.596Z,4.03
2018-11-12T13:28:12.335Z,4.47
2018-11-12T13:29:22.592Z,6.67
2018-11-12T13:30:32.422Z,5.58
2018-11-12T13:31:42.390Z,4.95
2018-11-12T13:32:52.317Z,5.95
2018-11-12T13:34:02.032Z,5.53
2018-11-12T13:35:12.922Z,4.70
2018-11-12T13:36:22.373Z,6.58
2018-11-12T13:37:32.149Z,5.28
2018-11-12T13:38:41.833Z,4.58
2018-11-12T13:39:51.426Z,4.80
2018-11-12T13:41:01.262Z,6.53
2018-11-12T13:42:10.775Z,5.10
2018-11-12T13:43:20.333Z,6.50
2018-11-12T13:44:30.135Z,5.00
2018-11-12T13:45:39.718Z,6.47
2018-11-12T13:46:53.589Z,5.08
2018-11-12T13:48:03.377Z,5.92
2018-11-12T13:49:13.039Z,5.80
2018-11-12T13:50:24.226Z,6.62
2018-11-12T13:51:33.743Z,6.97
2018-11-12T13:52:43.785Z,6.60
2018-11-12T13:53:53.602Z,5.87
2018-11-12T13:55:03.644Z,5.22
2018-11-12T13:56:13.446Z,6.08
2018-11-12T13:57:22.969Z,7.12
2018-11-12T13:58:32.597Z,8.33
2018-11-12T13:59:42.306Z,6.37
2018-11-12T14:00:52.399Z,5.85
2018-11-12T14:02:01.899Z,7.25
2018-11-12T14:03:11.605Z,6.35
2018-11-12T14:04:21.309Z,6.35
2018-11-12T14:05:31.022Z,7.53
2018-11-12T14:06:40.628Z,8.10
2018-11-12T14:07:50.548Z,6.47
2018-11-12T14:09:00.249Z,6.40
2018-11-12T14:10:11.563Z,6.45
2018-11-12T14:11:21.293Z,6.55
2018-11-12T14:12:30.825Z,7.47
2018-11-12T14:13:40.505Z,6.53
2018-11-12T14:14:50.296Z,6.45
2018-11-12T14:16:00.047Z,6.95
2018-11-12T14:17:10.633Z,7.70
2018-11-12T14:18:20.329Z,7.33
2018-11-12T14:19:30.028Z,8.75
2018-11-12T14:20:40.813Z,8.70
2018-11-12T14:21:50.208Z,7.28
2018-11-12T14:22:59.917Z,12.35
2018-11-12T14:24:09.861Z,7.20
2018-11-12T14:25:20.536Z,7.92
2018-11-12T14:26:30.466Z,7.67
2018-11-12T14:27:39.968Z,7.92
2018-11-12T14:28:50.068Z,8.38
2018-11-12T14:29:59.623Z,7.37
2018-11-12T14:31:09.427Z,6.95
2018-11-12T14:32:19.087Z,8.00
2018-11-12T14:33:28.912Z,10.15
2018-11-12T14:34:38.915Z,6.87
2018-11-12T14:35:48.549Z,10.05
2018-11-12T14:36:58.199Z,9.58
2018-11-12T14:38:08.026Z,7.40
2018-11-12T14:39:17.507Z,7.53
2018-11-12T14:40:27.115Z,8.10
2018-11-12T14:41:36.866Z,7.42
2018-11-12T14:42:46.628Z,9.30
2018-11-12T14:43:56.375Z,7.22
2018-11-12T14:45:08.081Z,7.50
2018-11-12T14:46:17.794Z,7.20
2018-11-12T14:47:27.402Z,9.33
2018-11-12T14:48:37.271Z,8.45
2018-11-12T14:49:47.032Z,7.15
2018-11-12T14:50:56.944Z,7.72
2018-11-12T14:52:06.733Z,7.70
2018-11-12T14:53:16.759Z,7.35
2018-11-12T14:54:26.518Z,10.08
2018-11-12T14:55:36.163Z,8.25
2018-11-12T14:56:45.809Z,9.70
2018-11-12T14:57:55.790Z,10.78
2018-11-12T14:59:06.789Z,10.78
2018-11-12T15:00:19.468Z,12.05
2018-11-12T15:01:29.053Z,10.93
2018-11-12T15:02:38.891Z,8.90
2018-11-12T15:03:49.810Z,9.28
2018-11-12T15:04:59.605Z,9.10
2018-11-12T15:06:09.202Z,9.28
2018-11-12T15:07:18.748Z,10.78
2018-11-12T15:08:28.514Z,9.33
2018-11-12T15:09:38.268Z,10.85
2018-11-12T15:10:47.901Z,10.13
2018-11-12T15:11:57.695Z,11.40
2018-11-12T15:13:07.430Z,11.57
2018-11-12T15:14:17.371Z,10.80
2018-11-12T15:15:27.057Z,10.78
2018-11-12T15:16:36.914Z,11.18
2018-11-12T15:17:46.992Z,13.10
2018-11-12T15:18:56.516Z,12.23
2018-11-12T15:20:08.023Z,10.63
2018-11-12T15:21:17.921Z,11.80